createdAt,value
2018-10-11T00:00:02.499Z,14.1
2018-10-11T00:05:01.559Z,14.1
2018-10-11T00:10:01.438Z,14.1
2018-10-11T00:15:01.465Z,14.1
2018-10-11T00:20:01.948Z,14.1
2018-10-11T00:25:02.060Z,14.1
2018-10-11T00:30:02.447Z,14.1
2018-10-11T00:35:02.308Z,14.1
2018-10-11T00:40:01.292Z,14.1
2018-10-11T00:45:01.464Z,14
2018-10-11T00:50:01.300Z,14
2018-10-11T00:55:01.960Z,14
2018-10-11T01:00:01.725Z,14
2018-10-11T01:05:01.346Z,14
2018-10-11T01:10:02.354Z,13.9
2018-10-11T01:15:01.479Z,13.8
2018-10-11T01:20:01.300Z,13.8
2018-10-11T01:25:01.240Z,13.7
2018-10-11T01:30:01.503Z,13.7
2018-10-11T01:35:01.240Z,13.7
2018-10-11T01:40:01.617Z,13.7
2018-10-11T01:45:02.129Z,13.7
2018-10-11T01:50:01.762Z,13.8
2018-10-11T01:55:01.697Z,13.7
2018-10-11T02:00:01.730Z,13.7
2018-10-11T02:05:02.311Z,13.8
2018-10-11T02:10:02.048Z,13.8
2018-10-11T02:15:01.528Z,13.8
2018-10-11T02:20:01.323Z,13.8
2018-10-11T02:25:02.037Z,13.8
2018-10-11T02:30:01.567Z,13.7
2018-10-11T02:35:01.314Z,13.7
2018-10-11T02:40:01.578Z,13.7
2018-10-11T02:45:01.203Z,13.6
2018-10-11T02:50:01.406Z,13.6
2018-10-11T02:55:02.304Z,13.6
2018-10-11T03:00:01.473Z,13.6
2018-10-11T03:05:02.147Z,13.6
2018-10-11T03:10:01.164Z,13.5
2018-10-11T03:15:02.208Z,13.5
2018-10-11T03:20:02.064Z,13.5
2018-10-11T03:25:01.530Z,13.4
2018-10-11T03:30:01.856Z,13.4
2018-10-11T03:35:01.994Z,13.5
2018-10-11T03:40:01.761Z,13.5
2018-10-11T03:45:01.671Z,13.5
2018-10-11T03:50:02.019Z,13.5
2018-10-11T03:55:01.853Z,13.4
2018-10-11T04:00:01.235Z,13.4
2018-10-11T04:05:02.077Z,13.4
2018-10-11T04:10:02.053Z,13.4
2018-10-11T04:15:01.701Z,13.4
2018-10-11T04:20:01.668Z,13.3
2018-10-11T04:25:01.853Z,13.3
2018-10-11T04:30:01.396Z,13.3
2018-10-11T04:35:01.907Z,13.2
2018-10-11T04:40:01.527Z,13.2
2018-10-11T04:45:01.425Z,13.2
2018-10-11T04:50:01.274Z,13.2
2018-10-11T04:55:02.292Z,13.2
2018-10-11T05:00:01.751Z,13.1
2018-10-11T05:05:02.105Z,13.1
2018-10-11T05:10:01.985Z,13.1
2018-10-11T05:15:01.456Z,13.1
2018-10-11T05:20:01.472Z,13.1
2018-10-11T05:25:01.694Z,13
2018-10-11T05:30:02.283Z,13
2018-10-11T05:35:01.205Z,13
2018-10-11T05:40:01.407Z,13.1
2018-10-11T05:45:01.956Z,13.1
2018-10-11T05:50:02.083Z,13.1
2018-10-11T05:55:01.547Z,13.1
2018-10-11T06:00:01.937Z,13.1
2018-10-11T06:05:02.046Z,13.2
2018-10-11T06:10:01.653Z,13.2
2018-10-11T06:15:01.525Z,13.3
2018-10-11T06:20:01.760Z,13.3
2018-10-11T06:25:01.951Z,13.3
2018-10-11T06:30:01.448Z,13.3
2018-10-11T06:35:02.140Z,13.3
2018-10-11T06:40:01.337Z,13.4
2018-10-11T06:45:01.183Z,13.5
2018-10-11T06:50:02.097Z,13.7
2018-10-11T06:55:02.140Z,13.9
2018-10-11T07:00:01.484Z,14
2018-10-11T07:05:02.017Z,14.2
2018-10-11T07:10:01.410Z,14.4
2018-10-11T07:15:01.255Z,14.6
2018-10-11T07:20:01.324Z,14.8
2018-10-11T07:25:01.477Z,15
2018-10-11T07:30:02.389Z,15.1
2018-10-11T07:35:02.195Z,15.4
2018-10-11T07:40:01.558Z,15.6
2018-10-11T07:45:02.277Z,15.8
2018-10-11T07:50:01.859Z,16
2018-10-11T07:55:01.969Z,16.3
2018-10-11T08:00:01.554Z,16.3
2018-10-11T08:05:01.682Z,16.5
2018-10-11T08:10:01.502Z,16.8
2018-10-11T08:15:01.277Z,17
2018-10-11T08:20:01.704Z,17.1
2018-10-11T08:25:01.508Z,17.2
2018-10-11T08:30:01.246Z,17.3
2018-10-11T08:35:01.831Z,17.6
2018-10-11T08:40:01.796Z,17.8
2018-10-11T08:45:01.293Z,18
2018-10-11T08:50:01.526Z,18.2
2018-10-11T08:55:01.733Z,18.5
2018-10-11T09:00:01.336Z,18.7
2018-10-11T09:05:01.956Z,18.9
2018-10-11T09:10:01.554Z,19.3
2018-10-11T09:15:01.708Z,19.5
2018-10-11T09:20:01.894Z,19.7
2018-10-11T09:25:02.108Z,20
2018-10-11T09:30:01.371Z,20.2
2018-10-11T09:35:01.735Z,20.5
2018-10-11T09:40:01.890Z,20.6
2018-10-11T09:45:01.624Z,20.7
2018-10-11T09:50:01.937Z,20.8
2018-10-11T09:55:01.879Z,20.8
2018-10-11T10:00:01.367Z,21.2
2018-10-11T10:05:02.385Z,21.4
2018-10-11T10:10:01.304Z,21.7
2018-10-11T10:15:01.626Z,21.8
2018-10-11T10:20:01.750Z,21.9
2018-10-11T10:25:02.015Z,22.1
2018-10-11T10:30:01.502Z,22.2
2018-10-11T10:35:01.524Z,22.5
2018-10-11T10:40:02.468Z,22.6
2018-10-11T10:45:01.868Z,22.8
2018-10-11T10:50:01.780Z,23.3
2018-10-11T10:55:01.270Z,23.5
2018-10-11T11:00:02.096Z,23.6
2018-10-11T11:05:01.426Z,23.7
2018-10-11T11:10:01.585Z,23.8
2018-10-11T11:15:01.501Z,24
2018-10-11T11:20:01.950Z,24.3
2018-10-11T11:25:01.704Z,24.3
2018-10-11T11:30:02.115Z,24.3
2018-10-11T11:35:02.529Z,24.3
2018-10-11T11:40:01.497Z,24.3
2018-10-11T11:45:01.616Z,24.5
2018-10-11T11:50:01.488Z,24.7
2018-10-11T11:55:01.317Z,24.6
2018-10-11T12:00:01.962Z,24.6
2018-10-11T12:05:01.882Z,25.1
2018-10-11T12:10:01.916Z,25
2018-10-11T12:15:02.061Z,25.1
2018-10-11T12:20:01.277Z,25.1
2018-10-11T12:25:01.727Z,25.1
2018-10-11T12:30:01.486Z,25.1
2018-10-11T12:35:01.420Z,24.8
2018-10-11T12:40:01.943Z,25
2018-10-11T12:45:01.717Z,24.7
2018-10-11T12:50:01.955Z,24.6
2018-10-11T12:55:01.857Z,25
2018-10-11T13:00:01.308Z,25.2
2018-10-11T13:05:02.038Z,25.4
2018-10-11T13:10:02.144Z,25.4
2018-10-11T13:15:01.574Z,25.5
2018-10-11T13:20:01.939Z,25.8
2018-10-11T13:25:01.510Z,25.7
2018-10-11T13:30:02.177Z,25.8
2018-10-11T13:35:01.663Z,25.8
2018-10-11T13:40:01.582Z,25.9
2018-10-11T13:45:01.433Z,26.1
2018-10-11T13:50:02.261Z,26
2018-10-11T13:55:06.796Z,25.9
2018-10-11T14:00:01.918Z,25.7
2018-10-11T14:05:01.756Z,25.8
2018-10-11T14:10:01.473Z,25.8
2018-10-11T14:15:01.514Z,25.7
2018-10-11T14:20:01.574Z,25.6
2018-10-11T14:25:02.093Z,25.5
2018-10-11T14:30:01.693Z,25.2
2018-10-11T14:35:02.100Z,25.1
2018-10-11T14:40:01.140Z,25.2
2018-10-11T14:45:02.229Z,25.2
2018-10-11T14:50:01.332Z,25
2018-10-11T14:55:01.463Z,25
2018-10-11T15:00:01.786Z,24.9
2018-10-11T15:05:02.449Z,24.8
2018-10-11T15:10:01.343Z,24.6
2018-10-11T15:15:01.231Z,24.4
2018-10-11T15:20:01.766Z,24.2
2018-10-11T15:25:02.269Z,23.9
2018-10-11T15:30:01.652Z,23.4
2018-10-11T15:35:02.245Z,23.3
2018-10-11T15:40:01.720Z,23.1
2018-10-11T15:45:01.621Z,22.7
2018-10-11T15:50:01.349Z,22.6
2018-10-11T15:55:01.489Z,22.5
2018-10-11T16:00:02.259Z,22.1
2018-10-11T16:05:02.025Z,21.8
2018-10-11T16:10:01.811Z,21.6
2018-10-11T16:15:01.275Z,21.5
2018-10-11T16:20:01.698Z,21.4
2018-10-11T16:25:01.442Z,21.1
2018-10-11T16:30:02.071Z,20.9
2018-10-11T16:35:01.852Z,20.8
2018-10-11T16:40:02.183Z,20.5
2018-10-11T16:45:02.116Z,20.3
2018-10-11T16:50:02.121Z,20.2
2018-10-11T16:55:01.676Z,19.9
2018-10-11T17:00:01.748Z,19.8
2018-10-11T17:05:01.608Z,19.7
2018-10-11T17:10:02.362Z,19.6
2018-10-11T17:15:01.413Z,19.5
2018-10-11T17:20:02.284Z,19.4
2018-10-11T17:25:01.658Z,19.3
2018-10-11T17:30:01.248Z,19.3
2018-10-11T17:35:01.837Z,19.3
2018-10-11T17:40:01.426Z,19.2
2018-10-11T17:45:01.489Z,19.2
2018-10-11T17:50:01.712Z,19.1
2018-10-11T17:55:01.600Z,19
2018-10-11T18:00:01.767Z,18.9
2018-10-11T18:05:01.854Z,18.8
2018-10-11T18:10:02.413Z,18.7
2018-10-11T18:15:01.761Z,18.6
2018-10-11T18:20:01.789Z,18.4
2018-10-11T18:25:01.978Z,17.9
2018-10-11T18:30:01.751Z,17.6
2018-10-11T18:35:02.033Z,17.3
2018-10-11T18:40:01.627Z,17.1
2018-10-11T18:45:01.556Z,16.9
2018-10-11T18:50:01.847Z,16.3
2018-10-11T18:55:01.464Z,16.1
2018-10-11T19:00:01.588Z,16
2018-10-11T19:05:02.066Z,15.9
2018-10-11T19:10:02.117Z,15.7
2018-10-11T19:15:01.224Z,15.6
2018-10-11T19:20:02.318Z,15.2
2018-10-11T19:25:01.926Z,14.9
2018-10-11T19:30:02.355Z,14.7
2018-10-11T19:35:01.297Z,14.6
2018-10-11T19:40:01.633Z,14.5
2018-10-11T19:45:01.991Z,14.3
2018-10-11T19:50:01.346Z,14
2018-10-11T19:55:02.091Z,13.9
2018-10-11T20:00:01.321Z,13.9
2018-10-11T20:05:01.191Z,13.8
2018-10-11T20:10:02.329Z,13.8
2018-10-11T20:15:01.798Z,13.7
2018-10-11T20:20:01.646Z,13.6
2018-10-11T20:25:02.039Z,13.5
2018-10-11T20:30:01.700Z,13.4
2018-10-11T20:35:01.910Z,13.3
2018-10-11T20:40:01.839Z,13.3
2018-10-11T20:45:02.204Z,13.2
2018-10-11T20:50:02.051Z,13.2
2018-10-11T20:55:01.199Z,13.1
2018-10-11T21:00:01.688Z,13
2018-10-11T21:05:02.077Z,12.9
2018-10-11T21:10:02.056Z,12.8
2018-10-11T21:15:01.438Z,12.7
2018-10-11T21:20:01.829Z,12.6
2018-10-11T21:25:01.277Z,12.6
2018-10-11T21:30:01.698Z,12.6
2018-10-11T21:35:01.593Z,12.6
2018-10-11T21:40:01.176Z,12.6
2018-10-11T21:45:02.637Z,12.6
2018-10-11T21:50:01.198Z,12.5
2018-10-11T21:55:01.937Z,12.4
2018-10-11T22:00:01.462Z,12.3
2018-10-11T22:05:01.588Z,12.3
2018-10-11T22:10:02.456Z,12.2
2018-10-11T22:15:01.508Z,12
2018-10-11T22:20:02.016Z,12
2018-10-11T22:25:01.487Z,11.9
2018-10-11T22:30:02.375Z,11.9
2018-10-11T22:35:01.250Z,11.7
2018-10-11T22:40:01.442Z,11.7
2018-10-11T22:45:02.024Z,11.6
2018-10-11T22:50:02.146Z,11.6
2018-10-11T22:55:01.366Z,11.5
2018-10-11T23:00:01.506Z,11.5
2018-10-11T23:05:01.824Z,11.4
2018-10-11T23:10:02.055Z,11.3
2018-10-11T23:15:01.653Z,11.2
2018-10-11T23:20:02.067Z,11.2
2018-10-11T23:25:02.276Z,11.2
2018-10-11T23:30:01.601Z,11.2
2018-10-11T23:35:01.601Z,11.2
2018-10-11T23:40:01.375Z,11
2018-10-11T23:45:01.748Z,11
2018-10-11T23:50:02.120Z,10.9
2018-10-11T23:55:01.470Z,10.9
